sensor_id;sensor_type;location;lat;lon;timestamp;P1;durP1;ratioP1;P2;durP2;ratioP2
36351;SDS011;22382;44.768;17.206;2023-05-20T00:02:15;31.52;;;23.08;;
36351;SDS011;22382;44.768;17.206;2023-05-20T00:04:42;32.65;;;22.35;;
36351;SDS011;22382;44.768;17.206;2023-05-20T00:07:09;31.25;;;21.42;;
36351;SDS011;22382;44.768;17.206;2023-05-20T00:09:37;28.02;;;21.80;;
36351;SDS011;22382;44.768;17.206;2023-05-20T00:12:05;30.45;;;20.55;;
36351;SDS011;22382;44.768;17.206;2023-05-20T00:14:32;28.05;;;20.85;;
36351;SDS011;22382;44.768;17.206;2023-05-20T00:17:00;28.70;;;21.35;;
36351;SDS011;22382;44.768;17.206;2023-05-20T00:19:27;29.90;;;21.45;;
36351;SDS011;22382;44.768;17.206;2023-05-20T00:21:54;27.00;;;20.55;;
36351;SDS011;22382;44.768;17.206;2023-05-20T00:24:23;25.33;;;19.88;;
36351;SDS011;22382;44.768;17.206;2023-05-20T00:26:51;28.20;;;21.27;;
36351;SDS011;22382;44.768;17.206;2023-05-20T00:29:21;28.33;;;20.65;;
36351;SDS011;22382;44.768;17.206;2023-05-20T00:31:48;29.23;;;20.58;;
36351;SDS011;22382;44.768;17.206;2023-05-20T00:34:16;23.27;;;18.83;;
36351;SDS011;22382;44.768;17.206;2023-05-20T00:36:43;29.70;;;20.77;;
36351;SDS011;22382;44.768;17.206;2023-05-20T00:39:10;26.20;;;20.67;;
36351;SDS011;22382;44.768;17.206;2023-05-20T00:41:38;25.92;;;19.98;;
36351;SDS011;22382;44.768;17.206;2023-05-20T00:44:06;26.50;;;20.58;;
36351;SDS011;22382;44.768;17.206;2023-05-20T00:46:33;25.90;;;19.70;;
36351;SDS011;22382;44.768;17.206;2023-05-20T00:49:02;28.10;;;20.48;;
36351;SDS011;22382;44.768;17.206;2023-05-20T00:51:29;29.90;;;21.17;;
36351;SDS011;22382;44.768;17.206;2023-05-20T00:53:56;29.10;;;20.30;;
36351;SDS011;22382;44.768;17.206;2023-05-20T00:56:24;26.75;;;20.00;;
36351;SDS011;22382;44.768;17.206;2023-05-20T00:58:52;31.52;;;20.95;;
36351;SDS011;22382;44.768;17.206;2023-05-20T01:01:19;24.48;;;19.52;;
36351;SDS011;22382;44.768;17.206;2023-05-20T01:03:47;21.92;;;17.77;;
36351;SDS011;22382;44.768;17.206;2023-05-20T01:06:14;24.15;;;18.65;;
36351;SDS011;22382;44.768;17.206;2023-05-20T01:08:41;26.98;;;19.13;;
36351;SDS011;22382;44.768;17.206;2023-05-20T01:11:18;29.60;;;20.20;;
36351;SDS011;22382;44.768;17.206;2023-05-20T01:16:26;24.02;;;18.95;;
36351;SDS011;22382;44.768;17.206;2023-05-20T01:18:56;22.05;;;18.10;;
36351;SDS011;22382;44.768;17.206;2023-05-20T01:21:24;25.30;;;18.65;;
36351;SDS011;22382;44.768;17.206;2023-05-20T01:23:54;26.60;;;19.10;;
36351;SDS011;22382;44.768;17.206;2023-05-20T01:26:21;24.50;;;18.45;;
36351;SDS011;22382;44.768;17.206;2023-05-20T01:28:52;27.08;;;21.15;;
36351;SDS011;22382;44.768;17.206;2023-05-20T01:31:21;27.85;;;20.33;;
36351;SDS011;22382;44.768;17.206;2023-05-20T01:33:53;25.38;;;19.05;;
36351;SDS011;22382;44.768;17.206;2023-05-20T01:36:24;22.83;;;18.92;;
36351;SDS011;22382;44.768;17.206;2023-05-20T01:38:53;24.25;;;18.73;;
36351;SDS011;22382;44.768;17.206;2023-05-20T01:41:22;22.42;;;18.70;;
36351;SDS011;22382;44.768;17.206;2023-05-20T01:43:50;25.73;;;19.05;;
36351;SDS011;22382;44.768;17.206;2023-05-20T01:46:18;23.80;;;19.60;;
36351;SDS011;22382;44.768;17.206;2023-05-20T01:48:45;23.48;;;18.20;;
36351;SDS011;22382;44.768;17.206;2023-05-20T01:51:12;24.58;;;18.65;;
36351;SDS011;22382;44.768;17.206;2023-05-20T01:53:40;24.67;;;19.13;;
36351;SDS011;22382;44.768;17.206;2023-05-20T01:56:07;22.98;;;18.30;;
36351;SDS011;22382;44.768;17.206;2023-05-20T01:58:34;26.13;;;19.58;;
36351;SDS011;22382;44.768;17.206;2023-05-20T02:01:02;22.58;;;17.92;;
36351;SDS011;22382;44.768;17.206;2023-05-20T02:03:29;23.42;;;18.42;;
36351;SDS011;22382;44.768;17.206;2023-05-20T02:05:56;23.45;;;18.33;;
36351;SDS011;22382;44.768;17.206;2023-05-20T02:08:23;22.27;;;17.42;;
36351;SDS011;22382;44.768;17.206;2023-05-20T02:10:51;24.30;;;17.80;;
36351;SDS011;22382;44.768;17.206;2023-05-20T02:13:18;22.63;;;17.20;;
36351;SDS011;22382;44.768;17.206;2023-05-20T02:15:46;24.40;;;18.77;;
36351;SDS011;22382;44.768;17.206;2023-05-20T02:18:13;23.25;;;18.92;;
36351;SDS011;22382;44.768;17.206;2023-05-20T02:20:44;23.80;;;18.15;;
36351;SDS011;22382;44.768;17.206;2023-05-20T02:23:11;23.83;;;18.13;;
36351;SDS011;22382;44.768;17.206;2023-05-20T02:25:39;22.15;;;18.30;;
36351;SDS011;22382;44.768;17.206;2023-05-20T02:28:07;21.63;;;17.27;;
36351;SDS011;22382;44.768;17.206;2023-05-20T02:30:38;23.33;;;18.85;;
36351;SDS011;22382;44.768;17.206;2023-05-20T02:33:06;24.27;;;19.13;;
36351;SDS011;22382;44.768;17.206;2023-05-20T02:35:35;31.92;;;21.77;;
36351;SDS011;22382;44.768;17.206;2023-05-20T02:38:02;26.73;;;20.67;;
36351;SDS011;22382;44.768;17.206;2023-05-20T02:40:29;25.77;;;19.83;;
36351;SDS011;22382;44.768;17.206;2023-05-20T02:42:57;22.25;;;18.67;;
36351;SDS011;22382;44.768;17.206;2023-05-20T02:45:25;23.38;;;18.67;;
36351;SDS011;22382;44.768;17.206;2023-05-20T02:47:52;30.83;;;22.17;;
36351;SDS011;22382;44.768;17.206;2023-05-20T02:50:20;29.90;;;20.88;;
36351;SDS011;22382;44.768;17.206;2023-05-20T02:52:47;27.83;;;20.20;;
36351;SDS011;22382;44.768;17.206;2023-05-20T02:55:14;28.15;;;19.17;;
36351;SDS011;22382;44.768;17.206;2023-05-20T02:57:41;23.15;;;17.80;;
36351;SDS011;22382;44.768;17.206;2023-05-20T03:00:09;21.83;;;17.60;;
36351;SDS011;22382;44.768;17.206;2023-05-20T03:02:38;25.17;;;19.98;;
36351;SDS011;22382;44.768;17.206;2023-05-20T03:05:06;21.25;;;17.35;;
36351;SDS011;22382;44.768;17.206;2023-05-20T03:07:34;22.73;;;18.33;;
36351;SDS011;22382;44.768;17.206;2023-05-20T03:10:01;23.83;;;19.52;;
36351;SDS011;22382;44.768;17.206;2023-05-20T03:12:30;26.92;;;19.63;;
36351;SDS011;22382;44.768;17.206;2023-05-20T03:14:57;26.70;;;20.50;;
36351;SDS011;22382;44.768;17.206;2023-05-20T03:17:25;28.65;;;21.20;;
36351;SDS011;22382;44.768;17.206;2023-05-20T03:19:53;32.25;;;21.30;;
36351;SDS011;22382;44.768;17.206;2023-05-20T03:22:20;28.48;;;19.80;;
36351;SDS011;22382;44.768;17.206;2023-05-20T03:24:47;28.88;;;20.70;;
36351;SDS011;22382;44.768;17.206;2023-05-20T03:27:14;26.23;;;19.83;;
36351;SDS011;22382;44.768;17.206;2023-05-20T03:29:41;26.67;;;18.63;;
36351;SDS011;22382;44.768;17.206;2023-05-20T03:32:09;25.42;;;18.95;;
36351;SDS011;22382;44.768;17.206;2023-05-20T03:34:36;26.17;;;19.73;;
36351;SDS011;22382;44.768;17.206;2023-05-20T03:37:04;25.38;;;19.52;;
36351;SDS011;22382;44.768;17.206;2023-05-20T03:39:31;24.60;;;18.85;;
36351;SDS011;22382;44.768;17.206;2023-05-20T03:41:58;26.42;;;19.60;;
36351;SDS011;22382;44.768;17.206;2023-05-20T03:44:25;24.23;;;18.80;;
36351;SDS011;22382;44.768;17.206;2023-05-20T03:46:53;27.98;;;20.80;;
36351;SDS011;22382;44.768;17.206;2023-05-20T03:49:20;24.60;;;18.38;;
36351;SDS011;22382;44.768;17.206;2023-05-20T03:51:47;24.20;;;19.50;;
36351;SDS011;22382;44.768;17.206;2023-05-20T03:54:15;28.33;;;21.38;;
36351;SDS011;22382;44.768;17.206;2023-05-20T03:56:42;24.13;;;17.83;;
36351;SDS011;22382;44.768;17.206;2023-05-20T03:59:12;25.52;;;18.90;;
36351;SDS011;22382;44.768;17.206;2023-05-20T04:01:39;24.65;;;18.42;;
36351;SDS011;22382;44.768;17.206;2023-05-20T04:04:06;21.27;;;18.15;;
36351;SDS011;22382;44.768;17.206;2023-05-20T04:06:34;22.13;;;17.23;;
36351;SDS011;22382;44.768;17.206;2023-05-20T04:09:01;19.55;;;16.00;;
36351;SDS011;22382;44.768;17.206;2023-05-20T04:11:29;22.83;;;17.80;;
36351;SDS011;22382;44.768;17.206;2023-05-20T04:13:56;19.73;;;16.45;;
36351;SDS011;22382;44.768;17.206;2023-05-20T04:16:25;22.95;;;17.50;;
36351;SDS011;22382;44.768;17.206;2023-05-20T04:18:55;20.00;;;16.10;;
36351;SDS011;22382;44.768;17.206;2023-05-20T04:21:24;19.38;;;16.13;;
36351;SDS011;22382;44.768;17.206;2023-05-20T04:23:51;21.33;;;17.75;;
36351;SDS011;22382;44.768;17.206;2023-05-20T04:26:19;22.40;;;16.65;;
36351;SDS011;22382;44.768;17.206;2023-05-20T04:28:47;24.50;;;18.90;;
36351;SDS011;22382;44.768;17.206;2023-05-20T04:31:15;20.42;;;16.75;;
36351;SDS011;22382;44.768;17.206;2023-05-20T04:33:42;23.73;;;17.58;;
36351;SDS011;22382;44.768;17.206;2023-05-20T04:36:10;22.67;;;17.17;;
36351;SDS011;22382;44.768;17.206;2023-05-20T04:38:41;21.17;;;16.83;;
36351;SDS011;22382;44.768;17.206;2023-05-20T04:41:10;20.75;;;17.27;;
36351;SDS011;22382;44.768;17.206;2023-05-20T04:43:37;31.40;;;19.70;;
36351;SDS011;22382;44.768;17.206;2023-05-20T04:46:05;26.60;;;17.75;;
36351;SDS011;22382;44.768;17.206;2023-05-20T04:48:33;21.98;;;17.40;;
36351;SDS011;22382;44.768;17.206;2023-05-20T04:51:00;22.42;;;16.67;;
36351;SDS011;22382;44.768;17.206;2023-05-20T04:53:27;26.83;;;18.10;;
36351;SDS011;22382;44.768;17.206;2023-05-20T04:55:55;23.35;;;16.98;;
36351;SDS011;22382;44.768;17.206;2023-05-20T04:58:23;27.77;;;17.42;;
36351;SDS011;22382;44.768;17.206;2023-05-20T05:00:50;18.67;;;15.20;;
36351;SDS011;22382;44.768;17.206;2023-05-20T05:03:18;21.35;;;16.05;;
36351;SDS011;22382;44.768;17.206;2023-05-20T05:05:45;24.33;;;17.85;;
36351;SDS011;22382;44.768;17.206;2023-05-20T05:08:13;27.88;;;19.33;;
36351;SDS011;22382;44.768;17.206;2023-05-20T05:10:40;24.48;;;17.58;;
36351;SDS011;22382;44.768;17.206;2023-05-20T05:13:07;29.42;;;18.42;;
36351;SDS011;22382;44.768;17.206;2023-05-20T05:15:35;29.75;;;17.60;;
36351;SDS011;22382;44.768;17.206;2023-05-20T05:18:02;24.95;;;18.33;;
36351;SDS011;22382;44.768;17.206;2023-05-20T05:20:29;29.45;;;19.30;;
36351;SDS011;22382;44.768;17.206;2023-05-20T05:22:57;30.92;;;20.58;;
36351;SDS011;22382;44.768;17.206;2023-05-20T05:25:24;28.63;;;19.98;;
36351;SDS011;22382;44.768;17.206;2023-05-20T05:27:52;29.63;;;20.17;;
36351;SDS011;22382;44.768;17.206;2023-05-20T05:30:20;32.70;;;20.20;;
36351;SDS011;22382;44.768;17.206;2023-05-20T05:32:48;35.60;;;22.25;;
36351;SDS011;22382;44.768;17.206;2023-05-20T05:35:15;37.08;;;22.27;;
36351;SDS011;22382;44.768;17.206;2023-05-20T05:37:42;37.90;;;23.90;;
36351;SDS011;22382;44.768;17.206;2023-05-20T05:40:10;45.28;;;26.98;;
36351;SDS011;22382;44.768;17.206;2023-05-20T05:42:37;43.67;;;25.52;;
36351;SDS011;22382;44.768;17.206;2023-05-20T05:45:05;41.97;;;25.08;;
36351;SDS011;22382;44.768;17.206;2023-05-20T05:47:33;52.85;;;28.58;;
36351;SDS011;22382;44.768;17.206;2023-05-20T05:50:00;44.15;;;26.92;;
36351;SDS011;22382;44.768;17.206;2023-05-20T05:52:27;42.13;;;26.23;;
36351;SDS011;22382;44.768;17.206;2023-05-20T05:54:54;39.60;;;25.85;;
36351;SDS011;22382;44.768;17.206;2023-05-20T05:57:22;43.88;;;26.45;;
36351;SDS011;22382;44.768;17.206;2023-05-20T05:59:49;48.90;;;28.73;;
36351;SDS011;22382;44.768;17.206;2023-05-20T06:02:16;56.05;;;29.98;;
36351;SDS011;22382;44.768;17.206;2023-05-20T06:04:44;51.42;;;28.60;;
36351;SDS011;22382;44.768;17.206;2023-05-20T06:07:11;58.05;;;30.50;;
36351;SDS011;22382;44.768;17.206;2023-05-20T06:09:39;55.42;;;29.08;;
36351;SDS011;22382;44.768;17.206;2023-05-20T06:12:06;53.95;;;30.83;;
36351;SDS011;22382;44.768;17.206;2023-05-20T06:14:33;58.20;;;30.70;;
36351;SDS011;22382;44.768;17.206;2023-05-20T06:17:02;54.45;;;28.80;;
36351;SDS011;22382;44.768;17.206;2023-05-20T06:19:31;58.20;;;29.58;;
36351;SDS011;22382;44.768;17.206;2023-05-20T06:21:58;51.55;;;28.17;;
36351;SDS011;22382;44.768;17.206;2023-05-20T06:24:26;51.53;;;29.67;;
36351;SDS011;22382;44.768;17.206;2023-05-20T06:26:53;54.67;;;31.00;;
36351;SDS011;22382;44.768;17.206;2023-05-20T06:29:22;47.70;;;28.52;;
36351;SDS011;22382;44.768;17.206;2023-05-20T06:31:49;44.08;;;27.88;;
36351;SDS011;22382;44.768;17.206;2023-05-20T06:34:16;46.00;;;28.48;;
36351;SDS011;22382;44.768;17.206;2023-05-20T06:36:44;47.83;;;27.80;;
36351;SDS011;22382;44.768;17.206;2023-05-20T06:39:11;42.90;;;25.75;;
36351;SDS011;22382;44.768;17.206;2023-05-20T06:41:38;41.42;;;26.38;;
36351;SDS011;22382;44.768;17.206;2023-05-20T06:44:06;42.65;;;26.23;;
36351;SDS011;22382;44.768;17.206;2023-05-20T06:46:33;37.42;;;25.02;;
36351;SDS011;22382;44.768;17.206;2023-05-20T06:49:01;41.25;;;26.83;;
36351;SDS011;22382;44.768;17.206;2023-05-20T06:51:28;42.15;;;26.63;;
36351;SDS011;22382;44.768;17.206;2023-05-20T06:53:56;40.25;;;25.83;;
36351;SDS011;22382;44.768;17.206;2023-05-20T06:56:23;38.25;;;24.33;;
36351;SDS011;22382;44.768;17.206;2023-05-20T06:58:51;38.65;;;26.70;;
36351;SDS011;22382;44.768;17.206;2023-05-20T07:01:18;32.30;;;22.67;;
36351;SDS011;22382;44.768;17.206;2023-05-20T07:03:46;39.28;;;25.55;;
36351;SDS011;22382;44.768;17.206;2023-05-20T07:06:13;33.90;;;23.17;;
36351;SDS011;22382;44.768;17.206;2023-05-20T07:08:40;34.85;;;24.88;;
36351;SDS011;22382;44.768;17.206;2023-05-20T07:11:08;32.15;;;23.83;;
36351;SDS011;22382;44.768;17.206;2023-05-20T07:13:36;29.92;;;21.73;;
36351;SDS011;22382;44.768;17.206;2023-05-20T07:16:03;35.72;;;25.45;;
36351;SDS011;22382;44.768;17.206;2023-05-20T07:18:31;36.90;;;25.73;;
36351;SDS011;22382;44.768;17.206;2023-05-20T07:20:58;37.88;;;29.20;;
36351;SDS011;22382;44.768;17.206;2023-05-20T07:23:26;38.42;;;29.83;;
36351;SDS011;22382;44.768;17.206;2023-05-20T07:25:53;36.80;;;28.05;;
36351;SDS011;22382;44.768;17.206;2023-05-20T07:28:20;39.20;;;29.02;;
36351;SDS011;22382;44.768;17.206;2023-05-20T07:30:48;41.40;;;29.90;;
36351;SDS011;22382;44.768;17.206;2023-05-20T07:33:21;33.78;;;26.17;;
36351;SDS011;22382;44.768;17.206;2023-05-20T07:35:48;39.38;;;27.13;;
36351;SDS011;22382;44.768;17.206;2023-05-20T07:38:15;36.97;;;27.90;;
36351;SDS011;22382;44.768;17.206;2023-05-20T07:40:43;37.28;;;28.48;;
36351;SDS011;22382;44.768;17.206;2023-05-20T07:43:10;39.78;;;30.23;;
36351;SDS011;22382;44.768;17.206;2023-05-20T07:45:38;40.88;;;29.00;;
36351;SDS011;22382;44.768;17.206;2023-05-20T07:48:05;39.20;;;30.05;;
36351;SDS011;22382;44.768;17.206;2023-05-20T07:50:35;37.97;;;30.13;;
36351;SDS011;22382;44.768;17.206;2023-05-20T07:53:04;41.25;;;32.08;;
36351;SDS011;22382;44.768;17.206;2023-05-20T07:55:33;40.83;;;31.00;;
36351;SDS011;22382;44.768;17.206;2023-05-20T07:58:01;48.95;;;34.55;;
36351;SDS011;22382;44.768;17.206;2023-05-20T08:00:29;44.58;;;32.65;;
36351;SDS011;22382;44.768;17.206;2023-05-20T08:02:57;45.25;;;34.15;;
36351;SDS011;22382;44.768;17.206;2023-05-20T08:05:24;43.50;;;32.90;;
36351;SDS011;22382;44.768;17.206;2023-05-20T08:07:52;42.17;;;31.50;;
36351;SDS011;22382;44.768;17.206;2023-05-20T08:10:19;43.70;;;32.05;;
36351;SDS011;22382;44.768;17.206;2023-05-20T08:12:46;40.67;;;31.65;;
36351;SDS011;22382;44.768;17.206;2023-05-20T08:15:13;37.88;;;29.50;;
36351;SDS011;22382;44.768;17.206;2023-05-20T08:17:41;40.20;;;29.58;;
36351;SDS011;22382;44.768;17.206;2023-05-20T08:20:08;38.97;;;30.20;;
36351;SDS011;22382;44.768;17.206;2023-05-20T08:22:38;38.47;;;31.05;;
36351;SDS011;22382;44.768;17.206;2023-05-20T08:25:08;44.47;;;34.28;;
36351;SDS011;22382;44.768;17.206;2023-05-20T08:27:36;39.45;;;31.33;;
36351;SDS011;22382;44.768;17.206;2023-05-20T08:30:03;37.75;;;30.50;;
36351;SDS011;22382;44.768;17.206;2023-05-20T08:32:33;40.38;;;31.52;;
36351;SDS011;22382;44.768;17.206;2023-05-20T08:35:01;38.63;;;31.65;;
36351;SDS011;22382;44.768;17.206;2023-05-20T08:37:29;34.22;;;28.55;;
36351;SDS011;22382;44.768;17.206;2023-05-20T08:39:56;34.35;;;28.30;;
36351;SDS011;22382;44.768;17.206;2023-05-20T08:42:23;35.47;;;28.63;;
36351;SDS011;22382;44.768;17.206;2023-05-20T08:44:52;33.00;;;28.20;;
36351;SDS011;22382;44.768;17.206;2023-05-20T08:47:22;31.17;;;27.45;;
36351;SDS011;22382;44.768;17.206;2023-05-20T08:49:49;34.13;;;29.35;;
36351;SDS011;22382;44.768;17.206;2023-05-20T08:52:17;34.90;;;28.30;;
36351;SDS011;22382;44.768;17.206;2023-05-20T08:54:48;34.78;;;28.70;;
36351;SDS011;22382;44.768;17.206;2023-05-20T08:57:17;39.45;;;30.55;;
36351;SDS011;22382;44.768;17.206;2023-05-20T08:59:48;42.60;;;34.00;;
36351;SDS011;22382;44.768;17.206;2023-05-20T09:02:19;38.22;;;30.63;;
36351;SDS011;22382;44.768;17.206;2023-05-20T09:04:47;39.72;;;33.30;;
36351;SDS011;22382;44.768;17.206;2023-05-20T09:07:27;45.88;;;34.95;;
36351;SDS011;22382;44.768;17.206;2023-05-20T09:09:55;40.22;;;32.92;;
36351;SDS011;22382;44.768;17.206;2023-05-20T09:12:26;41.53;;;34.17;;
36351;SDS011;22382;44.768;17.206;2023-05-20T09:14:56;39.38;;;33.85;;
36351;SDS011;22382;44.768;17.206;2023-05-20T09:17:25;39.60;;;33.05;;
36351;SDS011;22382;44.768;17.206;2023-05-20T09:19:54;45.30;;;35.42;;
36351;SDS011;22382;44.768;17.206;2023-05-20T09:22:24;45.58;;;37.08;;
36351;SDS011;22382;44.768;17.206;2023-05-20T09:24:56;44.42;;;36.33;;
36351;SDS011;22382;44.768;17.206;2023-05-20T09:27:23;44.53;;;34.05;;
36351;SDS011;22382;44.768;17.206;2023-05-20T09:29:50;44.50;;;37.17;;
36351;SDS011;22382;44.768;17.206;2023-05-20T09:32:19;49.25;;;32.80;;
36351;SDS011;22382;44.768;17.206;2023-05-20T09:34:49;45.00;;;34.40;;
36351;SDS011;22382;44.768;17.206;2023-05-20T09:37:17;42.70;;;33.63;;
36351;SDS011;22382;44.768;17.206;2023-05-20T09:42:41;37.75;;;29.95;;
36351;SDS011;22382;44.768;17.206;2023-05-20T09:45:16;40.15;;;32.15;;
36351;SDS011;22382;44.768;17.206;2023-05-20T09:47:43;34.92;;;29.23;;
36351;SDS011;22382;44.768;17.206;2023-05-20T09:50:12;35.58;;;29.75;;
36351;SDS011;22382;44.768;17.206;2023-05-20T09:52:40;41.10;;;32.13;;
36351;SDS011;22382;44.768;17.206;2023-05-20T09:55:10;33.67;;;27.30;;
36351;SDS011;22382;44.768;17.206;2023-05-20T09:57:37;37.60;;;29.67;;
36351;SDS011;22382;44.768;17.206;2023-05-20T10:00:05;36.28;;;30.60;;
36351;SDS011;22382;44.768;17.206;2023-05-20T10:02:34;38.90;;;30.35;;
36351;SDS011;22382;44.768;17.206;2023-05-20T10:05:03;37.92;;;31.10;;
36351;SDS011;22382;44.768;17.206;2023-05-20T10:14:05;41.10;;;32.95;;
36351;SDS011;22382;44.768;17.206;2023-05-20T10:21:57;40.25;;;29.35;;
36351;SDS011;22382;44.768;17.206;2023-05-20T10:24:32;40.95;;;32.30;;
36351;SDS011;22382;44.768;17.206;2023-05-20T10:27:07;36.38;;;29.75;;
36351;SDS011;22382;44.768;17.206;2023-05-20T10:29:43;32.30;;;27.42;;
36351;SDS011;22382;44.768;17.206;2023-05-20T10:32:26;38.47;;;28.88;;
36351;SDS011;22382;44.768;17.206;2023-05-20T10:35:00;39.83;;;30.02;;
36351;SDS011;22382;44.768;17.206;2023-05-20T10:37:32;33.80;;;29.00;;
36351;SDS011;22382;44.768;17.206;2023-05-20T10:40:09;37.05;;;31.38;;
36351;SDS011;22382;44.768;17.206;2023-05-20T10:45:06;34.60;;;27.85;;
36351;SDS011;22382;44.768;17.206;2023-05-20T10:47:34;38.22;;;29.80;;
36351;SDS011;22382;44.768;17.206;2023-05-20T10:50:02;34.58;;;28.55;;
36351;SDS011;22382;44.768;17.206;2023-05-20T10:52:36;29.92;;;26.30;;
36351;SDS011;22382;44.768;17.206;2023-05-20T10:55:04;33.80;;;28.75;;
36351;SDS011;22382;44.768;17.206;2023-05-20T10:57:32;34.50;;;30.20;;
36351;SDS011;22382;44.768;17.206;2023-05-20T11:00:00;33.28;;;29.52;;
36351;SDS011;22382;44.768;17.206;2023-05-20T11:02:27;32.85;;;28.30;;
36351;SDS011;22382;44.768;17.206;2023-05-20T11:04:55;36.45;;;28.42;;
36351;SDS011;22382;44.768;17.206;2023-05-20T11:07:26;35.58;;;29.13;;
36351;SDS011;22382;44.768;17.206;2023-05-20T11:09:55;32.50;;;27.75;;
36351;SDS011;22382;44.768;17.206;2023-05-20T11:12:23;31.77;;;26.77;;
36351;SDS011;22382;44.768;17.206;2023-05-20T11:14:52;34.25;;;27.67;;
36351;SDS011;22382;44.768;17.206;2023-05-20T11:17:20;33.95;;;26.65;;
36351;SDS011;22382;44.768;17.206;2023-05-20T11:19:47;33.50;;;26.98;;
36351;SDS011;22382;44.768;17.206;2023-05-20T11:22:15;32.97;;;27.85;;
36351;SDS011;22382;44.768;17.206;2023-05-20T11:24:43;31.85;;;26.77;;
36351;SDS011;22382;44.768;17.206;2023-05-20T11:27:10;29.45;;;25.55;;
36351;SDS011;22382;44.768;17.206;2023-05-20T11:29:37;34.13;;;25.92;;
36351;SDS011;22382;44.768;17.206;2023-05-20T11:32:06;30.85;;;24.67;;
36351;SDS011;22382;44.768;17.206;2023-05-20T11:34:35;30.15;;;25.38;;
36351;SDS011;22382;44.768;17.206;2023-05-20T11:37:07;32.63;;;24.95;;
36351;SDS011;22382;44.768;17.206;2023-05-20T11:39:35;30.40;;;25.73;;
36351;SDS011;22382;44.768;17.206;2023-05-20T11:42:03;30.70;;;25.35;;
36351;SDS011;22382;44.768;17.206;2023-05-20T11:44:31;32.60;;;27.90;;
36351;SDS011;22382;44.768;17.206;2023-05-20T11:47:00;34.10;;;26.67;;
36351;SDS011;22382;44.768;17.206;2023-05-20T11:49:28;34.03;;;28.02;;
36351;SDS011;22382;44.768;17.206;2023-05-20T11:51:56;36.10;;;27.80;;
36351;SDS011;22382;44.768;17.206;2023-05-20T11:54:24;35.03;;;27.73;;
36351;SDS011;22382;44.768;17.206;2023-05-20T11:56:52;37.17;;;28.08;;
36351;SDS011;22382;44.768;17.206;2023-05-20T11:59:20;30.75;;;25.58;;
36351;SDS011;22382;44.768;17.206;2023-05-20T12:01:50;31.98;;;25.50;;
36351;SDS011;22382;44.768;17.206;2023-05-20T12:04:17;29.33;;;23.80;;
36351;SDS011;22382;44.768;17.206;2023-05-20T12:06:45;32.40;;;23.83;;
36351;SDS011;22382;44.768;17.206;2023-05-20T12:09:12;29.50;;;23.95;;
36351;SDS011;22382;44.768;17.206;2023-05-20T12:11:40;30.20;;;24.73;;
36351;SDS011;22382;44.768;17.206;2023-05-20T12:14:07;29.95;;;23.75;;
36351;SDS011;22382;44.768;17.206;2023-05-20T12:16:35;28.52;;;22.58;;
36351;SDS011;22382;44.768;17.206;2023-05-20T12:19:03;27.15;;;23.02;;
36351;SDS011;22382;44.768;17.206;2023-05-20T12:21:31;26.42;;;22.35;;
36351;SDS011;22382;44.768;17.206;2023-05-20T12:23:58;31.98;;;22.80;;
36351;SDS011;22382;44.768;17.206;2023-05-20T12:26:27;25.10;;;21.80;;
36351;SDS011;22382;44.768;17.206;2023-05-20T12:28:55;24.25;;;21.45;;
36351;SDS011;22382;44.768;17.206;2023-05-20T12:31:23;24.35;;;19.73;;
36351;SDS011;22382;44.768;17.206;2023-05-20T12:33:51;22.65;;;20.02;;
36351;SDS011;22382;44.768;17.206;2023-05-20T12:36:18;25.92;;;19.77;;
36351;SDS011;22382;44.768;17.206;2023-05-20T12:38:45;22.35;;;19.75;;
36351;SDS011;22382;44.768;17.206;2023-05-20T12:41:13;24.25;;;19.15;;
36351;SDS011;22382;44.768;17.206;2023-05-20T12:43:40;26.70;;;19.00;;
36351;SDS011;22382;44.768;17.206;2023-05-20T12:46:07;22.70;;;19.17;;
36351;SDS011;22382;44.768;17.206;2023-05-20T12:48:35;23.98;;;19.77;;
36351;SDS011;22382;44.768;17.206;2023-05-20T12:51:02;23.00;;;18.75;;
36351;SDS011;22382;44.768;17.206;2023-05-20T12:53:30;24.80;;;19.90;;
36351;SDS011;22382;44.768;17.206;2023-05-20T12:55:57;23.98;;;20.08;;
36351;SDS011;22382;44.768;17.206;2023-05-20T12:58:24;25.30;;;20.92;;
36351;SDS011;22382;44.768;17.206;2023-05-20T13:00:51;25.63;;;19.90;;
36351;SDS011;22382;44.768;17.206;2023-05-20T13:03:19;25.75;;;20.63;;
36351;SDS011;22382;44.768;17.206;2023-05-20T13:05:46;22.77;;;19.55;;
36351;SDS011;22382;44.768;17.206;2023-05-20T13:08:13;22.17;;;19.30;;
36351;SDS011;22382;44.768;17.206;2023-05-20T13:10:40;24.30;;;19.70;;
36351;SDS011;22382;44.768;17.206;2023-05-20T13:13:08;21.45;;;19.15;;
36351;SDS011;22382;44.768;17.206;2023-05-20T13:15:36;21.45;;;18.30;;
36351;SDS011;22382;44.768;17.206;2023-05-20T13:18:04;23.05;;;18.45;;
36351;SDS011;22382;44.768;17.206;2023-05-20T13:20:32;23.55;;;17.02;;
36351;SDS011;22382;44.768;17.206;2023-05-20T13:23:00;20.60;;;17.23;;
36351;SDS011;22382;44.768;17.206;2023-05-20T13:25:27;20.95;;;15.70;;
36351;SDS011;22382;44.768;17.206;2023-05-20T13:27:55;19.48;;;16.55;;
36351;SDS011;22382;44.768;17.206;2023-05-20T13:30:22;18.50;;;14.80;;
36351;SDS011;22382;44.768;17.206;2023-05-20T13:32:50;18.98;;;14.48;;
36351;SDS011;22382;44.768;17.206;2023-05-20T13:35:17;18.35;;;14.73;;
36351;SDS011;22382;44.768;17.206;2023-05-20T13:37:44;16.77;;;14.50;;
36351;SDS011;22382;44.768;17.206;2023-05-20T13:40:12;18.35;;;15.02;;
36351;SDS011;22382;44.768;17.206;2023-05-20T13:42:40;17.67;;;14.60;;
36351;SDS011;22382;44.768;17.206;2023-05-20T13:45:08;18.48;;;15.07;;
36351;SDS011;22382;44.768;17.206;2023-05-20T13:47:35;19.13;;;14.18;;
36351;SDS011;22382;44.768;17.206;2023-05-20T13:50:03;15.85;;;14.15;;
36351;SDS011;22382;44.768;17.206;2023-05-20T13:52:31;17.67;;;13.50;;
36351;SDS011;22382;44.768;17.206;2023-05-20T13:54:58;19.60;;;15.52;;
36351;SDS011;22382;44.768;17.206;2023-05-20T13:57:25;17.23;;;14.80;;
36351;SDS011;22382;44.768;17.206;2023-05-20T13:59:52;18.48;;;14.25;;
36351;SDS011;22382;44.768;17.206;2023-05-20T14:02:20;18.13;;;14.32;;
36351;SDS011;22382;44.768;17.206;2023-05-20T14:04:47;14.60;;;12.88;;
36351;SDS011;22382;44.768;17.206;2023-05-20T14:07:14;17.52;;;13.43;;
36351;SDS011;22382;44.768;17.206;2023-05-20T14:09:41;19.08;;;13.30;;
36351;SDS011;22382;44.768;17.206;2023-05-20T14:12:09;17.50;;;13.20;;
36351;SDS011;22382;44.768;17.206;2023-05-20T14:14:36;18.60;;;14.10;;
36351;SDS011;22382;44.768;17.206;2023-05-20T14:17:03;15.88;;;13.30;;
36351;SDS011;22382;44.768;17.206;2023-05-20T14:19:30;21.48;;;13.82;;
36351;SDS011;22382;44.768;17.206;2023-05-20T14:21:58;17.10;;;12.35;;
36351;SDS011;22382;44.768;17.206;2023-05-20T14:24:26;16.55;;;12.40;;
36351;SDS011;22382;44.768;17.206;2023-05-20T14:26:54;13.52;;;10.70;;
36351;SDS011;22382;44.768;17.206;2023-05-20T14:29:21;14.38;;;12.00;;
36351;SDS011;22382;44.768;17.206;2023-05-20T14:31:48;13.23;;;11.02;;
36351;SDS011;22382;44.768;17.206;2023-05-20T14:34:16;16.58;;;12.32;;